Latest Coastal Weather Observations for Kingscote

IDS60701

Issued at 10:11 pm CDT Sunday 11 December 2016 (issued every 10 minutes, with the page automatically refreshed every 10 minutes)

About coastal observations | Map of coastal stations | Coastal observations for SA | Marine services | Other Formats
Station Details ID: 022841 Name: KINGSCOTE AERO Lat: -35.71 Lon: 137.52 Height: 6.23 m
Data from the previous 72 hours. | See also: Recent months at Kingscote
Date/Time
CDT
Temp
°C
Wind Pressure Rain since
9am
mm
Weather Cloud Vis
km
Sea
Height
m
Swell
Dir  Spd
kts
Gust
kts
hPa Trend Height
m
Period
s
Dir
11/10:00pm 13.0 S 4 5 1019.2 - 0.0 - - 10 - - - -
11/09:30pm 14.5 SSE 5 6 1019.0 - 0.0 - - 10 - - - -
11/09:00pm 15.4 SSE 7 8 1019.0 - 0.0 - - 10 - - - -
11/08:30pm 16.7 SSE 7 9 1019.1 - 0.0 - - 10 - - - -
11/08:00pm 18.2 SE 9 11 1018.9 - 0.0 - - 10 - - - -
11/07:30pm 19.8 SSE 10 12 1018.8 - 0.0 - - 10 - - - -
11/07:00pm 21.1 SE 11 13 1018.6 - 0.0 - - 10 - - - -
11/06:30pm 21.8 SE 11 14 1018.3 - 0.0 - - 10 - - - -
11/06:00pm 23.7 ESE 10 15 1018.2 - 0.0 - - 10 - - - -
11/05:30pm 23.6 E 10 13 1018.5 - 0.0 - - 10 - - - -
11/05:00pm 23.8 E 9 14 1018.9 - 0.0 - - 10 - - - -
11/04:30pm 24.0 E 10 14 1019.2 - 0.0 - - 10 - - - -
11/04:00pm 23.8 E 9 13 1019.3 - 0.0 - - 10 - - - -
11/03:30pm 24.5 E 8 11 1019.5 - 0.0 - - 10 - - - -
11/03:00pm 24.3 NE 6 9 1020.1 - 0.0 - - 10 - - - -
11/02:30pm 22.8 ESE 7 11 1020.5 - 0.0 - - 10 - - - -
11/02:00pm 22.3 ENE 8 13 1021.2 - 0.0 - - 10 - - - -
11/01:30pm 22.4 E 9 14 1021.6 - 0.0 - - 10 - - - -
11/01:00pm 21.4 ENE 11 14 1022.1 - 0.0 - - 10 - - - -
11/12:30pm 21.2 ENE 10 14 1022.2 - 0.0 - - 10 - - - -
11/12:00pm 21.3 ENE 10 15 1022.5 - 0.0 - - 10 - - - -
11/11:30am 19.7 ENE 11 15 1022.9 - 0.0 - - 10 - - - -
11/11:00am 19.6 ENE 11 17 1023.2 - 0.0 - - 10 - - - -
11/10:30am 19.2 ENE 14 18 1023.2 - 0.0 - - 10 - - - -
11/10:00am 18.6 E 15 19 1023.2 - 0.0 - - 10 - - - -
11/09:30am 18.0 E 15 20 1023.2 - 0.0 - - 10 - - - -
11/09:00am 18.0 ENE 15 19 1023.3 - 0.0 - Mostly clear 10 - - - -
11/08:30am 17.0 E 13 17 1023.4 - 0.0 - - 10 - - - -
11/08:00am 16.4 ESE 11 15 1023.3 - 0.0 - - 10 - - - -
11/07:30am 15.0 SE 8 11 1023.1 - 0.0 - - 10 - - - -
11/07:00am 12.9 SE 6 8 1023.1 - 0.0 - - 10 - - - -
11/06:30am 10.7 SSE 5 6 1023.0 - 0.0 - - 10 - - - -
11/06:00am 10.4 SE 6 7 1022.7 - 0.0 - - - - - - -
11/05:30am 10.3 SE 6 7 1022.4 - 0.0 - Partly cloudy - - - - -
11/05:00am 10.1 SE 4 5 1022.3 - 0.0 - Partly cloudy 10 - - - -
11/04:30am 9.4 SSE 4 5 1022.3 - 0.0 - Partly cloudy 10 - - - -
11/04:00am 9.7 SSE 4 5 1022.3 - 0.0 - Cloudy - - - - -
11/03:30am 8.7 CALM 0 0 1022.4 - 0.0 - Partly cloudy 10 - - - -
11/03:00am 8.2 CALM 0 0 1022.5 - 0.0 - Partly cloudy - - - - -
11/02:30am 7.7 CALM 0 0 1022.8 - 0.0 - Partly cloudy - - - - -
11/02:00am 7.7 CALM 0 0 1023.0 - 0.0 - Partly cloudy - - - - -
11/01:30am 7.5 CALM 0 0 1023.3 - 0.0 - - - - - - -
11/01:00am 8.0 CALM 0 0 1023.5 - 0.0 - - 10 - - - -
11/12:30am 8.7 CALM 0 0 1023.7 - 0.0 - - 10 - - - -
11/12:00am 8.8 CALM 0 0 1023.9 - 0.0 - - 10 - - - -
 
Date/Time
CDT
Temp
°C
Wind Pressure Rain since
9am
mm
Weather Cloud Vis
km
Sea
Height
m
Swell
Dir  Spd
kts
Gust
kts
hPa Trend Height
m
Period
s
Dir
10/11:30pm 10.7 S 2 4 1024.1 - 0.0 - - 10 - - - -
10/11:00pm 11.3 SSE 4 4 1024.1 - 0.0 - - 10 - - - -
10/10:30pm 12.0 SSE 6 7 1024.1 - 0.0 - - 10 - - - -
10/10:00pm 12.4 SSE 6 7 1024.1 - 0.0 - - 10 - - - -
10/09:30pm 12.9 SSE 6 7 1024.0 - 0.0 - - 10 - - - -
10/09:00pm 13.5 SSE 8 11 1023.8 - 0.0 - - 10 - - - -
10/08:30pm 14.4 SSE 10 13 1023.6 - 0.0 - - 10 - - - -
10/08:00pm 15.3 SE 12 16 1023.4 - 0.0 - - 10 - - - -
10/07:30pm 16.2 SE 12 17 1023.2 - 0.0 - - 10 - - - -
10/07:00pm 16.7 SE 13 16 1023.0 - 0.0 - - 10 - - - -
10/06:30pm 17.3 SE 15 19 1022.8 - 0.0 - - 10 - - - -
10/06:00pm 17.7 SE 14 18 1022.7 - 0.0 - Mostly clear 10 - - - -
10/05:30pm 18.0 SE 14 19 1022.9 - 0.0 - Partly cloudy 10 - - - -
10/05:00pm 18.6 SE 13 19 1023.0 - 0.0 - - 10 - - - -
10/04:30pm 19.1 SE 13 19 1023.0 - 0.0 - Partly cloudy 10 - - - -
10/04:00pm 19.7 SE 13 18 1023.1 - 0.0 - Partly cloudy 10 - - - -
10/03:30pm 20.3 SSE 12 17 1023.1 - 0.0 - Partly cloudy 10 - - - -
10/03:00pm 20.5 SE 13 17 1023.4 - 0.0 - Mostly cloudy 10 - - - -
10/02:30pm 20.6 E 9 16 1023.4 - 0.0 - Partly cloudy 10 - - - -
10/02:00pm 20.8 E 11 15 1023.4 - 0.0 - - 10 - - - -
10/01:30pm 20.6 E 10 15 1023.6 - 0.0 - - 10 - - - -
10/01:00pm 20.8 ESE 9 14 1023.8 - 0.0 - - 10 - - - -
10/12:30pm 19.7 E 9 14 1024.0 - 0.0 - Partly cloudy 10 - - - -
10/12:00pm 20.7 E 7 12 1023.9 - 0.0 - Mostly clear 10 - - - -
10/11:30am 19.7 ENE 6 11 1024.1 - 0.0 - - 10 - - - -
10/11:00am 18.1 NE 7 13 1024.2 - 0.0 - - 10 - - - -
10/10:30am 18.4 ESE 6 11 1024.4 - 0.0 - - 10 - - - -
10/10:00am 17.8 ENE 8 11 1024.6 - 0.0 - Partly cloudy 10 - - - -
10/09:30am 17.3 E 8 12 1024.6 - 0.0 - Partly cloudy 10 - - - -
10/09:00am 16.3 ENE 8 13 1024.8 - 0.0 - Mostly clear 10 - - - -
10/08:30am 16.4 E 9 13 1024.6 - 0.0 - - 10 - - - -
10/08:00am 13.7 CALM 0 0 1024.3 - 0.0 - - 10 - - - -
10/07:30am 9.3 CALM 0 0 1024.1 - 0.0 - - 10 - - - -
10/07:00am 6.9 CALM 0 0 1023.7 - 0.0 - - 10 - - - -
10/06:30am 5.1 CALM 0 0 1023.7 - 0.0 - - 10 - - - -
10/06:00am 4.2 CALM 0 0 1023.4 - 0.0 - - - - - - -
10/05:30am 4.4 CALM 0 0 1023.2 - 0.0 - - - - - - -
10/05:00am 5.1 WSW 3 4 1023.0 - 0.0 - - - - - - -
10/04:30am 5.0 WSW 4 5 1023.0 - 0.0 - - - - - - -
10/04:00am 5.5 WSW 3 4 1023.0 - 0.0 - - - - - - -
10/03:30am 5.4 WSW 2 6 1023.1 - 0.0 - - - - - - -
10/03:00am 5.9 CALM 0 0 1023.1 - 0.0 - Mostly clear 10 - - - -
10/02:30am 7.2 W 1 3 1023.3 - 0.0 - Partly cloudy 10 - - - -
10/02:00am 6.0 WSW 2 5 1023.7 - 0.0 - Partly cloudy 10 - - - -
10/01:30am 6.6 CALM 0 0 1023.6 - 0.0 - - 10 - - - -
10/01:00am 6.9 CALM 0 0 1023.7 - 0.0 - - 10 - - - -
10/12:30am 7.4 CALM 0 0 1024.0 - 0.0 - Partly cloudy 10 - - - -
10/12:00am 8.4 CALM 0 0 1024.2 - 0.0 - Mostly clear 10 - - - -
 
Date/Time
CDT
Temp
°C
Wind Pressure Rain since
9am
mm
Weather Cloud Vis
km
Sea
Height
m
Swell
Dir  Spd
kts
Gust
kts
hPa Trend Height
m
Period
s
Dir
09/11:30pm 8.3 CALM 0 0 1024.3 - 0.0 - - 10 - - - -
09/11:00pm 9.6 CALM 0 0 1024.5 - 0.0 - Partly cloudy 10 - - - -
09/10:30pm 9.9 SSW 4 6 1024.5 - 0.0 - Partly cloudy 10 - - - -
09/10:00pm 10.8 S 6 7 1024.5 - 0.0 - - 10 - - - -
09/09:30pm 11.4 S 6 7 1024.1 - 0.0 - - 10 - - - -
09/09:00pm 12.2 SSE 7 8 1024.0 - 0.0 - - 10 - - - -
09/08:30pm 13.3 SSE 8 11 1024.0 - 0.0 - - 10 - - - -
09/08:00pm 14.3 SSE 10 13 1023.6 - 0.0 - - 10 - - - -
09/07:30pm 15.2 SSE 11 16 1023.3 - 0.0 - Partly cloudy 10 - - - -
09/07:00pm 15.9 SE 13 18 1023.1 - 0.0 - - 10 - - - -
09/06:30pm 16.3 SE 14 19 1022.7 - 0.0 - - 10 - - - -
09/06:00pm 16.9 SE 16 21 1022.5 - 0.0 - - 10 - - - -
09/05:30pm 17.9 SE 14 19 1022.4 - 0.0 - - 10 - - - -
09/05:00pm 18.7 SE 13 19 1022.3 - 0.0 - - 10 - - - -
09/04:30pm 18.1 SE 11 16 1022.3 - 0.0 - - 10 - - - -
09/04:00pm 18.8 SSE 12 18 1022.4 - 0.0 - - 10 - - - -
09/03:30pm 18.7 SSE 11 16 1022.5 - 0.0 - Partly cloudy 10 - - - -
09/03:00pm 18.9 SSE 10 19 1022.6 - 0.0 - Mostly clear 10 - - - -
09/02:30pm 19.1 SSE 8 15 1022.8 - 0.0 - Partly cloudy 10 - - - -
09/02:00pm 19.1 S 10 13 1022.9 - 0.0 - Partly cloudy 10 - - - -
09/01:30pm 18.6 S 10 16 1023.2 - 0.0 - Partly cloudy 10 - - - -
09/01:00pm 17.5 SSE 9 15 1023.5 - 0.0 - Cloudy 10 - - - -
09/12:30pm 18.7 S 10 15 1023.6 - 0.0 - Cloudy 10 - - - -
09/12:00pm 17.9 SSE 10 14 1023.5 - 0.0 - Mostly cloudy 10 - - - -
09/11:30am 18.4 SSW 8 14 1023.4 - 0.0 - Partly cloudy 10 - - - -
09/11:00am 16.6 SSW 10 15 1023.3 - 0.0 - Cloudy 10 - - - -
09/10:30am 16.0 SSW 8 12 1023.1 - 0.0 - Partly cloudy 10 - - - -
09/10:00am 15.9 SSW 11 16 1023.0 - 0.0 - Cloudy 10 - - - -
09/09:30am 15.1 SSW 12 16 1022.9 - 0.0 - Cloudy 10 - - - -
09/09:00am 14.5 S 12 14 1022.8 - 0.0 - Cloudy 10 - - - -
09/08:30am 14.9 SSW 11 15 1022.3 - 0.0 - Cloudy 10 - - - -
09/08:00am 14.5 S 13 16 1021.9 - 0.0 - Partly cloudy 10 - - - -
09/07:30am 14.8 S 11 15 1021.5 - 0.0 - Cloudy 10 - - - -
09/07:00am 13.4 SSW 6 10 1021.1 - 0.0 - Cloudy 10 - - - -
09/06:30am 11.7 WSW 4 6 1020.7 - 0.0 - Cloudy 10 - - - -
09/06:00am 11.7 SSW 7 8 1020.5 - 0.0 - Partly cloudy 10 - - - -
09/05:30am 12.6 S 10 13 1020.1 - 0.0 - Cloudy 10 - - - -
09/05:00am 11.7 WSW 4 6 1019.6 - 0.0 - - 10 - - - -
09/04:30am 12.2 SSW 5 7 1019.3 - 0.0 - Partly cloudy 10 - - - -
09/04:00am 11.9 SSW 7 9 1019.1 - 0.0 - Partly cloudy 10 - - - -
09/03:30am 12.8 S 9 13 1018.8 - 0.0 - Cloudy 10 - - - -
09/03:00am 12.9 SSW 7 9 1018.6 - 0.0 - Cloudy 10 - - - -
09/02:30am 12.7 SSW 9 11 1018.4 - 0.0 - Partly cloudy 10 - - - -
09/02:00am 13.1 SSW 10 13 1018.3 - 0.0 - Cloudy 10 - - - -
09/01:30am 13.2 SSW 9 13 1018.3 - 0.0 - Partly cloudy 10 - - - -
09/01:00am 12.7 SSW 10 13 1018.2 - 0.0 - Cloudy 10 - - - -
09/12:30am 12.5 S 7 9 1018.3 - 0.0 - Partly cloudy 10 - - - -
09/12:00am 12.8 SSW 9 12 1018.2 - 0.0 - Mostly cloudy 10 - - - -
 
Date/Time
CDT
Temp
°C
Wind Pressure Rain since
9am
mm
Weather Cloud Vis
km
Sea
Height
m
Swell
Dir  Spd
kts
Gust
kts
hPa Trend Height
m
Period
s
Dir
08/11:30pm 12.4 SSW 11 15 1018.1 - 0.0 - Partly cloudy 10 - - - -
08/11:00pm 13.3 SSW 15 22 1017.9 - 0.0 - Partly cloudy 10 - - - -
08/10:30pm 13.3 SSW 15 19 1017.8 - 0.0 - Partly cloudy 10 - - - -

Other Formats:

Comma delimited format used in spreadsheet applications
http://www.bom.gov.au/fwo/IDS60701/IDS60701.95807.axf

JavaScript Object Notation format (JSON) in row-major order
http://www.bom.gov.au/fwo/IDS60701/IDS60701.95807.json